Time;durP1;ratioP1;P1;durP2;ratioP2;P2;SDS_P1;SDS_P2;PMS_P1;PMS_P2;Temp;Humidity;BMP_temperature;BMP_pressure;BME280_temperature;BME280_humidity;BME280_pressure;Samples;Min_cycle;Max_cycle;Signal;HPM_P1;HPM_P2
2021/08/17 00:02:13;;;;;;;39.13;25.77;;;18.20;53.80;;;;;;5069776;28;20032;-67
2021/08/17 00:04:40;;;;;;;35.55;24.52;;;18.20;53.90;;;;;;5070678;28;20497;-71
2021/08/17 00:07:08;;;;;;;34.40;24.60;;;18.30;53.90;;;;;;5071692;28;20066;-70
2021/08/17 00:09:36;;;;;;;40.85;25.10;;;18.50;53.10;;;;;;5065654;28;20025;-67
2021/08/17 00:12:04;;;;;;;36.35;23.13;;;18.50;53.10;;;;;;5071401;28;20119;-68
2021/08/17 00:14:31;;;;;;;35.28;25.85;;;18.70;52.50;;;;;;5070682;28;20507;-69
2021/08/17 00:16:59;;;;;;;37.28;25.17;;;18.70;53.20;;;;;;5070094;28;20032;-64
2021/08/17 00:19:26;;;;;;;34.03;21.98;;;18.80;53.30;;;;;;5065890;28;20147;-69
2021/08/17 00:21:53;;;;;;;30.83;22.02;;;18.90;51.60;;;;;;5069818;28;20021;-73
2021/08/17 00:24:21;;;;;;;33.70;21.83;;;19.00;51.90;;;;;;5071175;28;20972;-68
2021/08/17 00:26:48;;;;;;;31.67;21.48;;;19.10;52.50;;;;;;5070604;28;20013;-69
2021/08/17 00:29:16;;;;;;;33.70;22.60;;;19.10;51.70;;;;;;5064936;28;20140;-70
2021/08/17 00:31:43;;;;;;;28.02;20.08;;;19.20;50.80;;;;;;5070494;28;20109;-72
2021/08/17 00:34:11;;;;;;;28.30;18.70;;;19.20;51.90;;;;;;5071204;28;20166;-71
2021/08/17 00:36:38;;;;;;;33.88;24.17;;;19.30;50.00;;;;;;5075283;28;20025;-62
2021/08/17 00:39:05;;;;;;;20.60;14.18;;;19.30;50.80;;;;;;5070403;28;20143;-62
2021/08/17 00:41:33;;;;;;;20.15;12.25;;;19.50;49.20;;;;;;5077295;28;20025;-57
2021/08/17 00:44:00;;;;;;;22.58;13.45;;;19.60;47.80;;;;;;5077331;28;20504;-60
2021/08/17 00:46:38;;;;;;;22.52;11.57;;;19.70;48.10;;;;;;5076882;28;20016;-58
2021/08/17 00:49:08;;;;;;;21.25;14.75;;;19.80;47.00;;;;;;5071811;28;20701;-65
2021/08/17 00:51:39;;;;;;;26.42;16.13;;;19.60;49.10;;;;;;5078547;28;20064;-70
2021/08/17 00:54:08;;;;;;;26.83;14.93;;;19.50;50.60;;;;;;5078727;28;20028;-71
2021/08/17 00:56:37;;;;;;;23.63;13.27;;;19.50;49.30;;;;;;5078851;28;20020;-71
2021/08/17 00:59:05;;;;;;;20.92;13.52;;;19.60;49.90;;;;;;5072428;28;20264;-73
2021/08/17 01:01:36;;;;;;;21.80;14.00;;;19.60;50.50;;;;;;5077125;28;20036;-69
2021/08/17 01:04:11;;;;;;;19.70;13.80;;;19.60;49.10;;;;;;5079073;28;20035;-72
2021/08/17 01:06:43;;;;;;;19.83;14.00;;;19.70;48.80;;;;;;5078818;28;20099;-70
2021/08/17 01:09:17;;;;;;;22.40;14.32;;;19.80;50.00;;;;;;5072545;28;20374;-70
2021/08/17 01:11:47;;;;;;;21.85;14.52;;;19.80;49.00;;;;;;5078000;28;20035;-67
2021/08/17 01:14:25;;;;;;;22.80;15.73;;;19.90;50.50;;;;;;5079339;28;20037;-67
2021/08/17 01:17:04;;;;;;;25.55;13.60;;;20.00;49.90;;;;;;5079623;28;20035;-65
2021/08/17 01:19:50;;;;;;;23.35;15.88;;;20.00;49.50;;;;;;5070405;28;20025;-60
2021/08/17 01:22:18;;;;;;;23.17;14.80;;;20.00;50.90;;;;;;5075767;28;20025;-66
2021/08/17 01:24:46;;;;;;;17.05;12.23;;;20.10;50.50;;;;;;5078190;28;20063;-63
2021/08/17 01:27:14;;;;;;;25.75;14.77;;;20.20;48.70;;;;;;5077781;28;20277;-70
2021/08/17 01:29:43;;;;;;;20.90;14.52;;;20.20;49.80;;;;;;5068153;28;20079;-66
2021/08/17 01:32:12;;;;;;;18.92;12.80;;;20.30;48.40;;;;;;5078387;28;20016;-68
2021/08/17 01:34:44;;;;;;;21.10;12.68;;;20.30;48.10;;;;;;5075417;28;20414;-69
2021/08/17 01:37:15;;;;;;;23.40;15.10;;;20.40;47.70;;;;;;5078666;28;20020;-67
2021/08/17 01:39:42;;;;;;;17.15;13.43;;;20.40;49.90;;;;;;5074106;28;20032;-66
2021/08/17 01:42:11;;;;;;;22.20;15.60;;;20.50;49.30;;;;;;5079299;28;20077;-68
2021/08/17 01:44:41;;;;;;;17.70;12.20;;;20.50;50.60;;;;;;5078530;28;20459;-69
2021/08/17 01:47:13;;;;;;;14.10;10.77;;;20.60;48.60;;;;;;5077312;28;20043;-66
2021/08/17 01:49:41;;;;;;;19.33;13.50;;;20.60;48.40;;;;;;5069639;28;20021;-65
2021/08/17 01:52:12;;;;;;;16.77;11.60;;;20.70;49.00;;;;;;5075203;28;20552;-70
2021/08/17 01:54:43;;;;;;;18.42;12.50;;;20.70;47.20;;;;;;5073134;28;20060;-64
2021/08/17 01:57:10;;;;;;;16.40;12.43;;;20.80;48.40;;;;;;5075088;28;20054;-64
2021/08/17 01:59:38;;;;;;;14.82;10.82;;;20.90;48.30;;;;;;5069928;28;20020;-63
2021/08/17 02:02:08;;;;;;;17.70;11.30;;;20.90;46.80;;;;;;5075516;28;20016;-69
2021/08/17 02:04:39;;;;;;;19.30;11.73;;;21.00;48.90;;;;;;5073725;28;20021;-67
2021/08/17 02:07:07;;;;;;;19.13;13.15;;;21.10;47.40;;;;;;5071318;28;20029;-69
2021/08/17 02:09:35;;;;;;;16.40;12.02;;;21.00;49.60;;;;;;5070775;28;20060;-70
2021/08/17 02:12:02;;;;;;;20.60;13.13;;;21.10;47.90;;;;;;5075189;28;20031;-67
2021/08/17 02:14:30;;;;;;;15.68;11.40;;;21.20;49.10;;;;;;5075406;28;20039;-66
2021/08/17 02:16:58;;;;;;;14.20;10.73;;;21.20;47.60;;;;;;5074821;28;20021;-67
2021/08/17 02:19:25;;;;;;;16.92;10.63;;;21.20;49.50;;;;;;5069355;28;21155;-62
2021/08/17 02:21:58;;;;;;;17.30;13.07;;;21.20;47.30;;;;;;5071632;28;20043;-67
2021/08/17 02:24:26;;;;;;;18.77;12.50;;;21.10;50.40;;;;;;5072904;28;20107;-66
2021/08/17 02:26:56;;;;;;;16.63;12.63;;;21.10;50.20;;;;;;5074205;28;20141;-66
2021/08/17 02:29:24;;;;;;;19.27;12.70;;;21.00;49.20;;;;;;5067980;28;20052;-65
2021/08/17 02:31:51;;;;;;;17.85;12.52;;;21.30;48.80;;;;;;5073015;28;20033;-65
2021/08/17 02:34:22;;;;;;;16.13;12.52;;;21.30;49.60;;;;;;5073548;28;20383;-60
2021/08/17 02:36:49;;;;;;;16.33;12.10;;;21.30;50.40;;;;;;5073138;28;20029;-69
2021/08/17 02:39:16;;;;;;;14.50;11.23;;;21.40;50.20;;;;;;5066864;28;20059;-62
2021/08/17 02:41:44;;;;;;;20.38;14.13;;;21.40;48.80;;;;;;5073213;28;20029;-69
2021/08/17 02:44:11;;;;;;;15.32;11.32;;;21.30;50.50;;;;;;5073547;28;20055;-71
2021/08/17 02:46:39;;;;;;;12.50;9.20;;;21.30;50.30;;;;;;5073118;28;20021;-56
2021/08/17 02:49:08;;;;;;;10.00;7.03;;;21.60;46.50;;;;;;5068234;28;20491;-59
2021/08/17 02:51:36;;;;;;;13.80;9.88;;;21.80;45.00;;;;;;5071381;28;20021;-64
2021/08/17 02:54:03;;;;;;;14.50;10.00;;;21.90;46.60;;;;;;5072215;28;20032;-58
2021/08/17 02:56:31;;;;;;;14.75;6.25;;;22.00;47.60;;;;;;5070097;28;20392;-59
2021/08/17 02:58:58;;;;;;;8.18;6.20;;;22.00;44.50;;;;;;5066039;28;20187;-59
2021/08/17 03:01:26;;;;;;;11.15;6.38;;;22.00;44.90;;;;;;5064553;28;20039;-61
2021/08/17 03:03:53;;;;;;;9.18;7.13;;;22.10;44.00;;;;;;5069341;28;20016;-62
2021/08/17 03:06:20;;;;;;;6.38;4.35;;;22.10;45.80;;;;;;5071092;28;20031;-60
2021/08/17 03:08:48;;;;;;;8.77;5.55;;;22.10;43.40;;;;;;5069537;28;20074;-68
2021/08/17 03:11:15;;;;;;;13.05;6.38;;;21.80;43.80;;;;;;5068419;28;20028;-71
2021/08/17 03:13:43;;;;;;;10.27;5.55;;;21.60;46.50;;;;;;5071385;28;20020;-68
2021/08/17 03:16:10;;;;;;;9.38;5.63;;;21.40;46.40;;;;;;5071824;28;20119;-65
2021/08/17 03:18:38;;;;;;;6.70;4.85;;;21.60;47.00;;;;;;5070082;28;20021;-69
2021/08/17 03:24:12;;;;;;;10.07;6.35;;;21.90;45.30;;;;;;5068102;28;20060;-70
2021/08/17 03:26:40;;;;;;;8.38;5.85;;;21.90;45.90;;;;;;5071087;28;20124;-70
2021/08/17 03:29:07;;;;;;;6.53;4.30;;;22.00;46.10;;;;;;5071313;28;20050;-73
2021/08/17 03:31:35;;;;;;;6.57;4.50;;;22.10;44.50;;;;;;5070785;28;20033;-74
2021/08/17 03:34:02;;;;;;;8.02;5.47;;;22.20;46.80;;;;;;5072365;28;20388;-74
2021/08/17 03:36:33;;;;;;;7.82;3.97;;;22.40;46.30;;;;;;5068476;28;20026;-72
2021/08/17 03:39:01;;;;;;;7.95;4.78;;;22.50;46.00;;;;;;5068498;28;20032;-75
2021/08/17 03:41:28;;;;;;;5.10;3.83;;;22.50;46.20;;;;;;5069874;28;20021;-70
2021/08/17 03:43:56;;;;;;;9.02;5.78;;;22.60;43.50;;;;;;5071680;28;20391;-67
2021/08/17 03:46:24;;;;;;;7.95;5.80;;;22.50;45.70;;;;;;5074206;28;20082;-72
2021/08/17 03:48:51;;;;;;;6.70;4.32;;;22.50;46.50;;;;;;5074568;28;20021;-73
2021/08/17 03:51:19;;;;;;;14.32;5.28;;;22.50;45.40;;;;;;5075028;28;20028;-75
2021/08/17 03:53:46;;;;;;;6.45;4.80;;;22.50;45.90;;;;;;5073395;28;20023;-74
2021/08/17 03:56:14;;;;;;;6.75;5.00;;;22.60;45.20;;;;;;5073459;28;20024;-69
2021/08/17 03:58:41;;;;;;;7.68;5.90;;;22.60;46.90;;;;;;5073486;28;20074;-71
2021/08/17 04:01:09;;;;;;;6.88;4.55;;;22.60;48.10;;;;;;5073522;28;20028;-73
2021/08/17 04:03:36;;;;;;;7.78;5.13;;;22.60;45.50;;;;;;5073620;28;20019;-70
2021/08/17 04:06:03;;;;;;;7.40;4.75;;;22.60;47.50;;;;;;5074751;28;20027;-70
2021/08/17 04:08:31;;;;;;;5.40;3.85;;;22.60;46.90;;;;;;5070898;28;20100;-69
2021/08/17 04:10:58;;;;;;;6.10;4.72;;;22.50;45.30;;;;;;5071050;28;20036;-70
2021/08/17 04:13:25;;;;;;;5.20;3.85;;;22.50;45.50;;;;;;5071980;28;20021;-73
2021/08/17 04:15:53;;;;;;;5.68;4.00;;;22.60;45.60;;;;;;5072631;28;20035;-72
2021/08/17 04:18:20;;;;;;;5.38;4.10;;;22.70;46.80;;;;;;5073264;28;20028;-70
2021/08/17 04:20:48;;;;;;;6.30;3.25;;;22.70;45.60;;;;;;5074936;28;20020;-73
2021/08/17 04:23:17;;;;;;;5.97;4.18;;;22.60;44.20;;;;;;5076574;28;20043;-71
2021/08/17 04:25:44;;;;;;;5.40;4.50;;;22.50;46.40;;;;;;5073313;28;20111;-72
2021/08/17 04:28:12;;;;;;;4.93;3.67;;;22.50;47.60;;;;;;5072629;28;20482;-72
2021/08/17 04:30:39;;;;;;;9.23;4.60;;;22.50;46.70;;;;;;5072805;28;20131;-70
2021/08/17 04:33:06;;;;;;;4.63;3.40;;;22.60;48.00;;;;;;5073099;28;20017;-73
2021/08/17 04:35:34;;;;;;;6.50;4.63;;;22.50;45.10;;;;;;5072665;28;20059;-72
2021/08/17 04:38:01;;;;;;;5.80;4.65;;;22.60;48.80;;;;;;5072272;28;20067;-70
2021/08/17 04:40:32;;;;;;;6.10;4.47;;;22.50;48.50;;;;;;5071504;28;20029;-66
2021/08/17 04:42:59;;;;;;;6.63;4.20;;;22.50;49.00;;;;;;5073445;28;20070;-68
2021/08/17 04:45:27;;;;;;;4.82;4.25;;;22.60;45.90;;;;;;5072373;28;20457;-68
2021/08/17 04:47:58;;;;;;;6.38;3.67;;;22.60;48.90;;;;;;5073356;28;20070;-62
2021/08/17 04:50:26;;;;;;;5.70;4.38;;;22.60;48.70;;;;;;5073607;28;20032;-64
2021/08/17 04:52:57;;;;;;;4.03;3.63;;;22.60;48.70;;;;;;5073394;28;20028;-60
2021/08/17 04:55:25;;;;;;;4.80;4.18;;;22.70;47.80;;;;;;5066110;28;20047;-66
2021/08/17 04:57:58;;;;;;;6.20;3.47;;;22.70;48.80;;;;;;5074139;28;20036;-68
2021/08/17 05:00:31;;;;;;;8.60;3.10;;;22.70;45.20;;;;;;5069376;28;20016;-66
2021/08/17 05:02:59;;;;;;;4.53;4.13;;;22.70;46.10;;;;;;5069604;28;20027;-66
2021/08/17 05:05:36;;;;;;;8.65;2.90;;;22.70;49.00;;;;;;5071096;28;20402;-70
2021/08/17 05:08:10;;;;;;;4.35;3.40;;;22.70;45.90;;;;;;5070761;28;20027;-68
2021/08/17 05:10:38;;;;;;;4.97;2.83;;;22.80;45.80;;;;;;5068676;28;20123;-70
2021/08/17 05:13:06;;;;;;;3.78;3.38;;;22.80;46.10;;;;;;5069248;28;20031;-70
2021/08/17 05:15:34;;;;;;;5.10;3.60;;;22.80;48.70;;;;;;5071911;28;20450;-70
2021/08/17 05:18:05;;;;;;;4.68;3.40;;;22.80;47.60;;;;;;5069682;28;20025;-71
2021/08/17 05:20:32;;;;;;;3.90;2.97;;;22.90;48.20;;;;;;5066551;28;20146;-70
2021/08/17 05:23:00;;;;;;;4.18;3.13;;;22.90;46.90;;;;;;5072260;28;20023;-69
2021/08/17 05:25:27;;;;;;;3.75;3.35;;;22.90;46.10;;;;;;5073151;28;20063;-68
2021/08/17 05:27:55;;;;;;;3.78;2.97;;;23.00;47.40;;;;;;5073827;28;20033;-67
2021/08/17 05:30:22;;;;;;;4.22;2.97;;;23.00;48.50;;;;;;5068949;28;20143;-69
2021/08/17 05:32:51;;;;;;;4.93;2.97;;;23.00;47.30;;;;;;5073610;28;20016;-65
2021/08/17 05:35:18;;;;;;;4.57;2.88;;;23.00;48.10;;;;;;5071493;28;20082;-66
2021/08/17 05:37:46;;;;;;;4.03;3.13;;;22.90;48.60;;;;;;5073932;28;20017;-64
2021/08/17 05:40:14;;;;;;;5.18;3.47;;;22.90;46.80;;;;;;5069621;28;20025;-70
2021/08/17 05:42:42;;;;;;;4.13;3.03;;;22.90;48.90;;;;;;5072580;28;20486;-68
2021/08/17 05:45:10;;;;;;;3.80;2.83;;;22.90;48.40;;;;;;5073286;28;20032;-66
2021/08/17 05:47:46;;;;;;;6.65;3.03;;;23.00;47.40;;;;;;5074014;28;20091;-65
2021/08/17 05:50:16;;;;;;;4.85;3.00;;;22.90;48.30;;;;;;5067868;28;20035;-72
2021/08/17 05:52:43;;;;;;;4.95;2.65;;;22.80;48.80;;;;;;5073167;28;20047;-68
2021/08/17 05:55:11;;;;;;;4.22;3.00;;;22.80;46.70;;;;;;5073127;28;20044;-69
2021/08/17 05:57:40;;;;;;;5.72;3.95;;;22.80;48.80;;;;;;5072772;28;20497;-70
2021/08/17 06:00:13;;;;;;;3.88;2.97;;;22.70;49.00;;;;;;5063956;28;20029;-70
2021/08/17 06:02:41;;;;;;;4.95;3.17;;;22.70;49.00;;;;;;5072969;28;20104;-69
2021/08/17 06:05:08;;;;;;;5.13;3.00;;;22.60;49.20;;;;;;5071874;28;20029;-70
2021/08/17 06:07:36;;;;;;;4.65;2.90;;;22.70;49.30;;;;;;5071608;28;20028;-69
2021/08/17 06:10:05;;;;;;;4.32;2.45;;;22.60;48.90;;;;;;5067312;28;20023;-66
2021/08/17 06:12:32;;;;;;;6.75;3.00;;;22.60;49.20;;;;;;5073213;28;20085;-70
2021/08/17 06:15:00;;;;;;;14.70;3.83;;;22.50;49.70;;;;;;5054470;28;20100;-69
2021/08/17 06:17:27;;;;;;;5.25;2.72;;;22.50;49.90;;;;;;5073231;28;20467;-70
2021/08/17 06:19:55;;;;;;;4.40;3.17;;;22.40;49.00;;;;;;5067940;28;20559;-71
2021/08/17 06:22:22;;;;;;;5.75;2.63;;;22.40;49.80;;;;;;5072711;28;20029;-70
2021/08/17 06:24:49;;;;;;;6.75;3.08;;;22.50;49.70;;;;;;5072389;28;20040;-69
2021/08/17 06:27:19;;;;;;;3.72;2.05;;;22.40;50.00;;;;;;5073011;28;20047;-64
2021/08/17 06:29:46;;;;;;;8.65;2.88;;;22.30;48.50;;;;;;5068481;28;20522;-70
2021/08/17 06:32:14;;;;;;;7.22;2.30;;;22.20;50.30;;;;;;5072579;28;20028;-70
2021/08/17 06:34:41;;;;;;;7.10;2.83;;;22.20;48.30;;;;;;5072812;28;20044;-69
2021/08/17 06:37:09;;;;;;;8.40;3.58;;;22.00;49.00;;;;;;5072538;28;20475;-70
2021/08/17 06:39:36;;;;;;;16.30;2.65;;;21.80;49.90;;;;;;5067623;28;20158;-68
2021/08/17 06:42:05;;;;;;;13.98;3.13;;;21.60;49.90;;;;;;5073012;28;20036;-70
2021/08/17 06:44:33;;;;;;;7.43;3.03;;;21.40;50.40;;;;;;5072835;28;20028;-73
2021/08/17 06:47:00;;;;;;;10.63;2.50;;;21.20;50.60;;;;;;5073055;28;20470;-72
2021/08/17 06:49:28;;;;;;;9.98;3.13;;;21.00;49.60;;;;;;5068505;28;20032;-71
2021/08/17 06:51:55;;;;;;;6.50;2.38;;;20.80;52.10;;;;;;5072830;28;20142;-72
2021/08/17 06:54:22;;;;;;;10.43;2.75;;;20.60;52.40;;;;;;5069584;28;20029;-72
2021/08/17 06:56:50;;;;;;;9.23;2.58;;;20.50;52.40;;;;;;5071790;28;20036;-71
2021/08/17 06:59:17;;;;;;;5.40;2.90;;;20.40;52.80;;;;;;5071190;28;20503;-67
2021/08/17 07:01:44;;;;;;;8.88;2.63;;;20.20;53.50;;;;;;5065146;28;20021;-68
2021/08/17 07:04:12;;;;;;;11.10;3.33;;;20.00;54.00;;;;;;5070460;28;20095;-68
2021/08/17 07:06:40;;;;;;;5.25;2.00;;;19.90;54.30;;;;;;5065662;28;20028;-70
2021/08/17 07:09:08;;;;;;;6.68;2.15;;;19.80;53.50;;;;;;5067426;28;20021;-73
2021/08/17 07:11:35;;;;;;;15.05;3.08;;;19.70;53.40;;;;;;5063499;28;20047;-70
2021/08/17 07:14:03;;;;;;;8.75;2.30;;;19.60;54.70;;;;;;5065840;28;20043;-73
2021/08/17 07:16:36;;;;;;;9.70;2.45;;;19.60;54.00;;;;;;5063823;28;20032;-68
2021/08/17 07:19:05;;;;;;;8.30;1.65;;;19.50;54.10;;;;;;5064986;28;20447;-72
2021/08/17 07:21:32;;;;;;;9.07;2.42;;;19.40;54.60;;;;;;5063569;28;20467;-70
2021/08/17 07:24:02;;;;;;;8.02;2.55;;;19.30;55.40;;;;;;5066531;28;20550;-70
2021/08/17 07:26:38;;;;;;;5.97;1.92;;;19.30;55.50;;;;;;5067923;28;20024;-66
2021/08/17 07:29:06;;;;;;;9.25;2.28;;;19.30;54.90;;;;;;5066715;28;20572;-70
2021/08/17 07:31:36;;;;;;;12.77;2.20;;;19.20;55.20;;;;;;5063128;28;20056;-71
2021/08/17 07:34:05;;;;;;;6.10;1.88;;;19.10;55.30;;;;;;5067671;28;20028;-64
2021/08/17 07:36:36;;;;;;;2.70;1.75;;;19.10;55.80;;;;;;5066413;28;20391;-67
2021/08/17 07:39:05;;;;;;;4.50;2.05;;;19.10;55.60;;;;;;5066469;28;20598;-66
2021/08/17 07:41:33;;;;;;;5.63;2.08;;;19.00;55.50;;;;;;5061594;28;20671;-66
2021/08/17 07:44:01;;;;;;;4.38;2.05;;;19.00;55.30;;;;;;5066095;28;20036;-64
2021/08/17 07:46:29;;;;;;;4.97;2.17;;;18.90;55.60;;;;;;5064826;28;20036;-71
2021/08/17 07:48:57;;;;;;;5.85;2.10;;;18.90;56.20;;;;;;5066890;28;20483;-66
2021/08/17 07:51:25;;;;;;;2.97;1.92;;;18.80;55.50;;;;;;5064473;28;20054;-71
2021/08/17 07:53:53;;;;;;;6.63;2.53;;;18.80;55.30;;;;;;5065577;28;20020;-67
2021/08/17 07:56:42;;;;;;;4.57;2.60;;;18.80;55.40;;;;;;5065319;28;20123;-68
2021/08/17 07:59:09;;;;;;;7.10;3.20;;;18.80;55.00;;;;;;5066300;28;20115;-74
2021/08/17 08:01:37;;;;;;;3.17;2.40;;;18.70;55.00;;;;;;5062648;28;20490;-69
2021/08/17 08:04:06;;;;;;;8.88;2.92;;;18.70;54.50;;;;;;5067212;28;20040;-74
2021/08/17 08:06:38;;;;;;;4.72;2.85;;;18.70;55.00;;;;;;5065863;28;20474;-67
2021/08/17 08:09:06;;;;;;;4.78;2.60;;;18.60;54.90;;;;;;5066429;28;20391;-71
2021/08/17 08:11:37;;;;;;;4.85;2.47;;;18.60;54.60;;;;;;5060649;28;20501;-65
2021/08/17 08:14:05;;;;;;;4.43;2.50;;;18.60;54.30;;;;;;5066964;28;20032;-68
2021/08/17 08:16:32;;;;;;;6.05;2.42;;;18.50;54.90;;;;;;5067982;28;20094;-75
2021/08/17 08:19:01;;;;;;;6.00;3.13;;;18.50;54.60;;;;;;5066823;28;20028;-69
2021/08/17 08:21:29;;;;;;;10.95;3.78;;;18.50;54.80;;;;;;5061227;28;20028;-68
2021/08/17 08:23:57;;;;;;;2.85;2.20;;;18.50;54.80;;;;;;5065491;28;20025;-71
2021/08/17 08:26:27;;;;;;;4.63;2.70;;;18.50;54.90;;;;;;5066313;28;20037;-69
2021/08/17 08:28:55;;;;;;;3.97;2.42;;;18.50;55.00;;;;;;5062180;28;20087;-75
2021/08/17 08:31:23;;;;;;;4.05;2.45;;;18.40;54.90;;;;;;5060059;28;20040;-65
2021/08/17 08:33:51;;;;;;;4.95;2.13;;;18.40;54.90;;;;;;5066131;28;20529;-61
2021/08/17 08:36:19;;;;;;;7.05;2.88;;;18.40;54.70;;;;;;5066360;28;20029;-65
2021/08/17 08:38:47;;;;;;;3.15;2.15;;;18.30;54.80;;;;;;5065405;28;20077;-67
2021/08/17 08:41:18;;;;;;;4.90;2.45;;;18.30;55.10;;;;;;5060234;28;20052;-71
2021/08/17 08:43:47;;;;;;;4.30;2.30;;;18.30;54.80;;;;;;5066227;28;20099;-71
2021/08/17 08:46:20;;;;;;;5.35;2.40;;;18.30;54.80;;;;;;5064503;28;20028;-65
2021/08/17 08:48:51;;;;;;;5.75;2.70;;;18.30;55.10;;;;;;5066233;28;20120;-65
2021/08/17 08:51:22;;;;;;;3.33;2.67;;;18.30;55.00;;;;;;5058320;28;20104;-66
2021/08/17 08:53:50;;;;;;;6.20;3.13;;;18.20;55.20;;;;;;5064044;28;20085;-68
2021/08/17 08:56:21;;;;;;;5.40;2.60;;;18.20;55.40;;;;;;5064294;28;20041;-69
2021/08/17 08:58:52;;;;;;;8.82;2.72;;;18.10;55.10;;;;;;5068048;28;20020;-68
2021/08/17 09:01:24;;;;;;;3.53;2.38;;;18.10;55.20;;;;;;5062965;28;20060;-71
2021/08/17 09:03:56;;;;;;;3.63;2.53;;;18.10;54.60;;;;;;5066821;28;20036;-69
2021/08/17 09:06:28;;;;;;;5.77;2.50;;;18.10;54.80;;;;;;5068500;28;20505;-70
2021/08/17 09:09:11;;;;;;;4.95;2.33;;;18.00;55.20;;;;;;5066853;28;20374;-68
2021/08/17 09:11:42;;;;;;;;;;;18.00;55.20;;;;;;5063324;28;20028;-71
2021/08/17 09:14:26;;;;;;;4.60;2.42;;;18.00;55.50;;;;;;5067381;28;19908;-69
2021/08/17 09:17:12;;;;;;;5.40;3.15;;;18.00;55.40;;;;;;5069716;28;20110;-69
2021/08/17 09:19:46;;;;;;;4.97;3.08;;;17.90;55.30;;;;;;5067392;28;20037;-69
2021/08/17 09:22:28;;;;;;;6.63;3.38;;;17.90;55.70;;;;;;5069333;28;20117;-66
2021/08/17 09:24:58;;;;;;;4.00;3.08;;;17.80;55.50;;;;;;5051259;28;20033;-69
2021/08/17 09:27:34;;;;;;;6.47;3.13;;;17.80;55.90;;;;;;5070211;28;20059;-72
2021/08/17 09:30:06;;;;;;;4.43;2.30;;;17.80;56.00;;;;;;5061937;28;20048;-75
2021/08/17 09:32:51;;;;;;;2.88;2.40;;;17.80;56.10;;;;;;5069280;28;20029;-65
2021/08/17 09:35:21;;;;;;;3.53;2.70;;;17.80;56.00;;;;;;5069866;28;20024;-64
2021/08/17 09:38:20;;;;;;;7.18;3.20;;;17.80;56.20;;;;;;5069575;28;20039;-71
2021/08/17 09:40:47;;;;;;;5.03;2.90;;;17.80;56.10;;;;;;5059954;28;20036;-70
2021/08/17 09:43:26;;;;;;;4.43;2.53;;;17.80;56.30;;;;;;5068373;28;20024;-65
2021/08/17 09:46:09;;;;;;;6.25;3.45;;;17.80;56.50;;;;;;5071067;28;20115;-68
2021/08/17 09:48:37;;;;;;;4.18;2.88;;;17.80;56.40;;;;;;5065986;28;20044;-61
2021/08/17 09:51:04;;;;;;;5.38;2.80;;;17.80;57.20;;;;;;5061807;28;20095;-69
2021/08/17 09:53:33;;;;;;;8.98;3.85;;;17.80;56.70;;;;;;5068980;28;20025;-69
2021/08/17 09:56:01;;;;;;;6.82;2.72;;;17.80;56.80;;;;;;5068843;28;20071;-71
2021/08/17 09:58:40;;;;;;;10.02;3.22;;;17.80;56.80;;;;;;5067606;28;20097;-67
2021/08/17 10:01:11;;;;;;;6.93;2.70;;;17.70;56.70;;;;;;5064078;28;20529;-73
2021/08/17 10:03:39;;;;;;;5.78;2.70;;;17.70;56.80;;;;;;5067765;28;20056;-70
2021/08/17 10:06:06;;;;;;;5.25;3.20;;;17.70;56.70;;;;;;5067303;28;20036;-68
2021/08/17 10:08:47;;;;;;;5.10;2.88;;;17.70;56.70;;;;;;5068363;28;20063;-66
2021/08/17 10:11:18;;;;;;;6.07;2.70;;;17.70;56.70;;;;;;5063292;28;20024;-67
2021/08/17 10:13:46;;;;;;;6.47;3.17;;;17.70;56.80;;;;;;5068464;28;20123;-64
2021/08/17 10:16:20;;;;;;;3.70;2.70;;;17.70;56.80;;;;;;5068659;28;20033;-65
2021/08/17 10:18:49;;;;;;;4.85;2.90;;;17.60;56.80;;;;;;5068110;28;20034;-63
2021/08/17 10:21:20;;;;;;;5.25;3.00;;;17.70;56.90;;;;;;5063649;28;20107;-72
2021/08/17 10:23:47;;;;;;;4.13;2.78;;;17.60;56.90;;;;;;5068285;28;20035;-70
2021/08/17 10:26:33;;;;;;;5.97;2.40;;;17.60;56.90;;;;;;5067847;28;20158;-70
2021/08/17 10:29:27;;;;;;;2.92;2.58;;;17.60;56.90;;;;;;5065946;28;20493;-74
2021/08/17 10:31:55;;;;;;;5.07;2.92;;;17.60;57.00;;;;;;5068852;28;20805;-70
2021/08/17 10:34:37;;;;;;;2.80;2.47;;;17.60;57.00;;;;;;5068069;28;20475;-69
2021/08/17 10:37:22;;;;;;;5.10;2.53;;;17.50;57.00;;;;;;5068472;28;20020;-65
2021/08/17 10:39:49;;;;;;;5.97;2.83;;;17.50;57.00;;;;;;5065454;28;20040;-66
2021/08/17 10:42:26;;;;;;;3.67;2.95;;;17.50;57.10;;;;;;5067860;28;20066;-65
2021/08/17 10:45:18;;;;;;;5.32;2.90;;;17.50;57.10;;;;;;5066988;28;20024;-68
2021/08/17 10:47:50;;;;;;;3.67;2.35;;;17.50;57.10;;;;;;5066953;28;20048;-70
2021/08/17 10:51:08;;;;;;;3.45;2.80;;;17.50;57.10;;;;;;5064148;28;20031;-66
2021/08/17 10:53:46;;;;;;;3.92;2.55;;;17.50;57.10;;;;;;5059262;28;20044;-62
2021/08/17 10:56:22;;;;;;;4.10;2.72;;;17.40;57.00;;;;;;5067017;28;20120;-67
2021/08/17 10:58:54;;;;;;;4.15;3.03;;;17.50;57.10;;;;;;5068411;28;20024;-67
2021/08/17 11:02:08;;;;;;;3.00;2.35;;;17.40;57.10;;;;;;5064236;28;20391;-73
2021/08/17 11:05:01;;;;;;;5.95;2.67;;;17.40;57.10;;;;;;4971186;28;20063;-77
2021/08/17 11:07:32;;;;;;;4.32;2.95;;;17.40;57.10;;;;;;4966248;28;20089;-70
2021/08/17 11:10:08;;;;;;;3.67;2.60;;;17.30;57.50;;;;;;5039065;28;20382;-73
2021/08/17 11:12:39;;;;;;;5.00;2.53;;;17.30;57.40;;;;;;5068422;28;20123;-70
2021/08/17 11:15:15;;;;;;;6.68;2.65;;;17.30;57.40;;;;;;5069611;28;20029;-70
2021/08/17 11:17:43;;;;;;;4.35;3.05;;;17.30;57.40;;;;;;5069336;28;20387;-70
2021/08/17 11:20:14;;;;;;;4.72;2.47;;;17.30;57.40;;;;;;5071831;28;20297;-64
2021/08/17 11:22:42;;;;;;;4.07;2.38;;;17.30;57.30;;;;;;5070185;28;20069;-65
2021/08/17 11:25:17;;;;;;;5.70;3.00;;;17.30;57.30;;;;;;5070132;28;20044;-67
2021/08/17 11:28:23;;;;;;;4.85;2.80;;;17.30;57.30;;;;;;5071475;28;20112;-64
2021/08/17 11:31:03;;;;;;;6.47;2.47;;;17.20;57.30;;;;;;5067563;28;20147;-74
2021/08/17 11:33:31;;;;;;;4.00;2.42;;;17.20;57.40;;;;;;5064971;28;20107;-70
2021/08/17 11:36:28;;;;;;;3.22;2.25;;;17.20;57.40;;;;;;5070123;28;20100;-71
2021/08/17 11:39:26;;;;;;;4.82;2.30;;;17.10;57.40;;;;;;5072307;28;20020;-71
2021/08/17 11:42:01;;;;;;;4.43;2.50;;;17.10;57.60;;;;;;5074061;28;20025;-72
2021/08/17 11:44:34;;;;;;;4.53;2.60;;;17.10;57.70;;;;;;5072623;28;20028;-72
2021/08/17 11:47:29;;;;;;;4.20;2.72;;;17.10;57.80;;;;;;5071240;28;20039;-68
2021/08/17 11:50:02;;;;;;;4.28;2.47;;;17.00;58.40;;;;;;5071564;28;20466;-71
2021/08/17 11:52:38;;;;;;;5.30;2.58;;;17.00;58.00;;;;;;5073098;28;20039;-73
2021/08/17 11:55:25;;;;;;;3.10;2.60;;;17.00;58.00;;;;;;5072252;28;20411;-72
2021/08/17 11:58:00;;;;;;;4.22;2.55;;;17.00;58.00;;;;;;5071076;28;20035;-72
2021/08/17 12:00:33;;;;;;;4.43;2.47;;;16.90;58.10;;;;;;5070965;28;20031;-66
2021/08/17 12:03:06;;;;;;;4.32;2.55;;;16.90;58.10;;;;;;5065386;28;20020;-63
2021/08/17 12:05:37;;;;;;;3.33;2.03;;;16.90;58.40;;;;;;5068956;28;20032;-67
2021/08/17 12:08:14;;;;;;;3.35;2.22;;;16.90;58.40;;;;;;5069098;28;20130;-67
2021/08/17 12:10:45;;;;;;;5.10;2.58;;;16.80;58.50;;;;;;5070310;28;20127;-68
2021/08/17 12:13:15;;;;;;;7.95;2.70;;;16.80;58.50;;;;;;5068762;28;20028;-68
2021/08/17 12:16:00;;;;;;;4.78;2.22;;;16.80;58.50;;;;;;5060286;28;20052;-69
2021/08/17 12:18:33;;;;;;;3.58;2.05;;;16.80;58.60;;;;;;5066047;28;20024;-70
2021/08/17 12:21:10;;;;;;;3.13;2.17;;;16.80;58.60;;;;;;5071456;28;20122;-76
2021/08/17 12:23:39;;;;;;;4.85;2.55;;;16.80;58.60;;;;;;5065654;28;20098;-66
2021/08/17 12:26:15;;;;;;;4.65;2.53;;;16.80;58.60;;;;;;5065095;28;20844;-73
2021/08/17 12:28:45;;;;;;;2.83;2.08;;;16.80;58.60;;;;;;5066317;28;20355;-65
2021/08/17 12:31:15;;;;;;;4.93;2.38;;;16.70;58.50;;;;;;5064473;28;20079;-65
2021/08/17 12:34:01;;;;;;;3.28;2.25;;;16.70;58.50;;;;;;5067620;28;20545;-67
2021/08/17 12:36:40;;;;;;;2.58;2.10;;;16.70;58.50;;;;;;5061880;28;20489;-70
2021/08/17 12:39:12;;;;;;;4.07;2.25;;;16.70;58.50;;;;;;5065332;28;20029;-70
2021/08/17 12:41:54;;;;;;;4.68;2.00;;;16.70;58.60;;;;;;5061437;28;20088;-71
2021/08/17 12:44:31;;;;;;;3.07;2.00;;;16.60;58.60;;;;;;5068555;28;20039;-70
2021/08/17 12:46:59;;;;;;;3.47;2.25;;;16.60;58.70;;;;;;5067017;28;20521;-71
2021/08/17 12:50:06;;;;;;;4.30;2.40;;;16.60;58.70;;;;;;5068176;28;20112;-71
2021/08/17 12:52:49;;;;;;;3.13;2.15;;;16.50;58.80;;;;;;5068442;28;20028;-70
2021/08/17 12:55:19;;;;;;;4.57;2.22;;;16.50;58.90;;;;;;5068479;28;20560;-70
2021/08/17 12:57:50;;;;;;;4.65;2.65;;;16.50;59.00;;;;;;5068715;28;20025;-71
2021/08/17 13:00:20;;;;;;;2.72;1.80;;;16.50;59.10;;;;;;5067359;28;20016;-71
2021/08/17 13:02:49;;;;;;;3.70;2.20;;;16.50;59.20;;;;;;5067340;28;20063;-69
2021/08/17 13:05:17;;;;;;;3.67;2.08;;;16.50;59.30;;;;;;5068060;28;20023;-70
2021/08/17 13:07:47;;;;;;;3.90;2.00;;;16.40;59.20;;;;;;5068238;28;20020;-71